createdAt,value
2022-11-17T00:00:29.535Z,0.00
2022-11-17T00:01:29.560Z,0.00
2022-11-17T00:02:29.575Z,0.00
2022-11-17T00:03:29.523Z,0.00
2022-11-17T00:04:29.498Z,0.00
2022-11-17T00:05:29.487Z,0.00
2022-11-17T00:06:29.523Z,0.00
2022-11-17T00:07:29.527Z,0.00
2022-11-17T00:08:29.472Z,0.00
2022-11-17T00:09:29.452Z,0.00
2022-11-17T00:10:29.430Z,0.00
2022-11-17T00:11:29.427Z,0.00
2022-11-17T00:13:54.918Z,0.00
2022-11-17T00:14:41.257Z,0.00
2022-11-17T00:15:41.245Z,0.00
2022-11-17T00:16:41.234Z,0.00
2022-11-17T00:17:41.231Z,0.00
2022-11-17T00:18:41.238Z,0.00
2022-11-17T00:19:41.210Z,0.00
2022-11-17T00:20:41.192Z,0.00
2022-11-17T00:21:41.184Z,0.00
2022-11-17T00:22:41.170Z,0.00
2022-11-17T00:23:41.162Z,0.00
2022-11-17T00:24:41.171Z,0.00
2022-11-17T00:25:41.144Z,0.00
2022-11-17T00:26:47.620Z,0.00
2022-11-17T00:27:41.122Z,0.00
2022-11-17T00:28:41.107Z,0.00
2022-11-17T00:29:41.126Z,0.00
2022-11-17T00:30:43.821Z,0.00
2022-11-17T00:31:41.080Z,0.00
2022-11-17T00:32:41.065Z,0.00
2022-11-17T00:33:41.058Z,0.00
2022-11-17T00:34:41.069Z,0.00
2022-11-17T00:35:41.036Z,0.00
2022-11-17T00:36:41.020Z,0.00
2022-11-17T00:37:41.015Z,0.00
2022-11-17T00:38:41.005Z,0.00
2022-11-17T00:39:41.010Z,0.00
2022-11-17T00:40:40.981Z,0.00
2022-11-17T00:41:40.992Z,0.00
2022-11-17T00:42:40.987Z,0.00
2022-11-17T00:43:40.965Z,0.00
2022-11-17T00:44:40.956Z,0.00
2022-11-17T00:45:40.928Z,0.00
2022-11-17T00:46:40.916Z,0.00
2022-11-17T00:47:40.936Z,0.00
2022-11-17T00:48:40.896Z,0.00
2022-11-17T00:49:40.888Z,0.00
2022-11-17T00:50:40.903Z,0.00
2022-11-17T00:51:40.890Z,0.00
2022-11-17T00:52:40.862Z,0.00
2022-11-17T00:53:40.845Z,0.00
2022-11-17T00:54:40.832Z,0.00
2022-11-17T00:55:40.884Z,0.00
2022-11-17T00:56:40.846Z,0.00
2022-11-17T00:57:40.803Z,0.00
2022-11-17T00:58:40.793Z,0.00
2022-11-17T00:59:40.785Z,0.00
2022-11-17T01:00:40.773Z,0.00
2022-11-17T01:01:40.844Z,0.00
2022-11-17T01:02:40.770Z,0.00
2022-11-17T01:03:40.744Z,0.00
2022-11-17T01:04:40.728Z,0.00
2022-11-17T01:05:40.723Z,0.00
2022-11-17T01:06:40.740Z,0.00
2022-11-17T01:07:40.757Z,0.00
2022-11-17T01:08:40.687Z,0.00
2022-11-17T01:09:40.679Z,0.00
2022-11-17T01:10:40.668Z,0.00
2022-11-17T01:11:40.656Z,0.00
2022-11-17T01:12:40.667Z,0.00
2022-11-17T01:13:40.636Z,0.00
2022-11-17T01:14:40.621Z,0.00
2022-11-17T01:15:40.617Z,0.00
2022-11-17T01:16:40.601Z,0.00
2022-11-17T01:17:40.594Z,0.00
2022-11-17T01:18:40.615Z,0.00
2022-11-17T01:19:40.577Z,0.00
2022-11-17T01:20:40.563Z,0.00
2022-11-17T01:21:40.553Z,0.00
2022-11-17T01:22:40.540Z,0.00
2022-11-17T01:23:40.532Z,0.00
2022-11-17T01:24:40.539Z,0.00
2022-11-17T01:25:40.544Z,0.00
2022-11-17T01:26:40.499Z,0.00
2022-11-17T01:27:40.490Z,0.00
2022-11-17T01:28:40.477Z,0.00
2022-11-17T01:29:40.468Z,0.00
2022-11-17T01:30:40.456Z,0.00
2022-11-17T01:31:40.483Z,0.00
2022-11-17T01:32:40.436Z,0.00
2022-11-17T01:33:40.430Z,0.00
2022-11-17T01:34:40.413Z,0.00
2022-11-17T01:35:40.404Z,0.00
2022-11-17T01:36:40.389Z,0.00
2022-11-17T01:37:40.405Z,0.00
2022-11-17T01:38:40.370Z,0.00
2022-11-17T01:39:40.363Z,0.00
2022-11-17T01:40:40.362Z,0.00
2022-11-17T01:41:40.360Z,0.00
2022-11-17T01:42:40.331Z,0.00
2022-11-17T01:43:40.345Z,0.00
2022-11-17T01:44:40.307Z,0.00
2022-11-17T01:45:40.302Z,0.00
2022-11-17T01:46:40.288Z,0.00
2022-11-17T01:47:40.315Z,0.00
2022-11-17T01:48:40.267Z,0.00
2022-11-17T01:49:40.258Z,0.00
2022-11-17T01:50:40.245Z,0.00
2022-11-17T01:51:40.237Z,0.00
2022-11-17T01:52:40.223Z,0.00
2022-11-17T01:53:40.238Z,0.00
2022-11-17T01:54:40.211Z,0.00
2022-11-17T01:55:40.196Z,0.00
2022-11-17T01:56:40.188Z,0.00
2022-11-17T01:57:40.178Z,0.00
2022-11-17T01:58:40.162Z,0.00
2022-11-17T01:59:40.196Z,0.00
2022-11-17T02:00:40.138Z,0.00
2022-11-17T02:01:40.173Z,0.00
2022-11-17T02:02:40.117Z,0.00
2022-11-17T02:03:40.133Z,0.00
2022-11-17T02:04:40.101Z,0.00
2022-11-17T02:05:40.089Z,0.00
2022-11-17T02:06:40.101Z,0.00
2022-11-17T02:07:40.073Z,0.00
2022-11-17T02:08:40.055Z,0.00
2022-11-17T02:09:40.077Z,0.00
2022-11-17T02:10:40.033Z,0.00
2022-11-17T02:11:40.031Z,0.00
2022-11-17T02:12:40.019Z,0.00
2022-11-17T02:13:40.006Z,0.00
2022-11-17T02:14:39.997Z,0.00
2022-11-17T02:15:40.006Z,0.00
2022-11-17T02:16:39.972Z,0.00
2022-11-17T02:17:39.960Z,0.00
2022-11-17T02:18:39.950Z,0.00
2022-11-17T02:19:39.944Z,0.00
2022-11-17T02:20:39.967Z,0.00
2022-11-17T02:21:39.918Z,0.00
2022-11-17T02:22:39.906Z,0.00
2022-11-17T02:23:39.901Z,0.00
2022-11-17T02:24:39.895Z,0.00
2022-11-17T02:25:39.884Z,0.00
2022-11-17T02:26:39.887Z,0.00
2022-11-17T02:27:39.861Z,0.00
2022-11-17T02:28:39.844Z,0.00
2022-11-17T02:29:39.834Z,0.00
2022-11-17T02:30:39.823Z,0.00
2022-11-17T02:31:39.849Z,0.00
2022-11-17T02:32:39.809Z,0.00
2022-11-17T02:33:39.798Z,0.00
2022-11-17T02:34:39.792Z,0.00
2022-11-17T02:35:39.775Z,0.00
2022-11-17T02:36:39.761Z,0.00
2022-11-17T02:37:39.781Z,0.00
2022-11-17T02:38:39.763Z,0.00
2022-11-17T02:39:39.731Z,0.00
2022-11-17T02:40:39.717Z,0.00
2022-11-17T02:41:39.711Z,0.00
2022-11-17T02:42:39.719Z,0.00
2022-11-17T02:43:39.692Z,0.00
2022-11-17T02:44:39.681Z,0.00
2022-11-17T02:45:39.673Z,0.00
2022-11-17T02:46:39.656Z,0.00
2022-11-17T02:47:39.649Z,0.00
2022-11-17T02:48:39.658Z,0.00
2022-11-17T02:49:39.627Z,0.00
2022-11-17T02:50:39.619Z,0.00
2022-11-17T02:51:39.602Z,0.00
2022-11-17T02:52:39.596Z,0.00
2022-11-17T02:53:39.608Z,0.00
2022-11-17T02:54:39.578Z,0.00
2022-11-17T02:55:39.559Z,0.00
2022-11-17T02:56:39.552Z,0.00
2022-11-17T02:57:39.548Z,0.00
2022-11-17T02:58:39.530Z,0.00
2022-11-17T02:59:39.538Z,0.00
2022-11-17T03:00:39.521Z,0.00
2022-11-17T03:01:39.574Z,0.00
2022-11-17T03:02:39.485Z,0.00
2022-11-17T03:03:39.476Z,0.00
2022-11-17T03:04:39.487Z,0.00
2022-11-17T03:05:39.453Z,0.00
2022-11-17T03:06:39.444Z,0.00
2022-11-17T03:07:39.431Z,0.00
2022-11-17T03:08:39.423Z,0.00
2022-11-17T03:09:39.434Z,0.00
2022-11-17T03:10:39.403Z,0.00
2022-11-17T03:11:39.389Z,0.00
2022-11-17T03:12:39.385Z,0.00
2022-11-17T03:13:39.378Z,0.00
2022-11-17T03:14:39.386Z,0.00
2022-11-17T03:15:39.377Z,0.00
2022-11-17T03:16:39.342Z,0.00
2022-11-17T03:17:39.327Z,0.00
2022-11-17T03:18:39.319Z,0.00
2022-11-17T03:19:39.310Z,0.00
2022-11-17T03:20:39.297Z,0.00
2022-11-17T03:21:39.308Z,0.00
2022-11-17T03:22:39.278Z,0.00
2022-11-17T03:23:39.270Z,0.00
2022-11-17T03:24:39.255Z,0.00
2022-11-17T03:25:39.246Z,0.00
2022-11-17T03:26:39.267Z,0.00
2022-11-17T03:27:39.218Z,0.00
2022-11-17T03:28:39.238Z,0.00
2022-11-17T03:29:39.204Z,0.00
2022-11-17T03:30:39.191Z,0.00
2022-11-17T03:31:39.201Z,0.00
2022-11-17T03:32:39.169Z,0.00
2022-11-17T03:33:39.180Z,0.00
2022-11-17T03:34:39.148Z,0.00
2022-11-17T03:35:39.136Z,0.00
2022-11-17T03:36:39.126Z,0.00
2022-11-17T03:37:39.116Z,0.00
2022-11-17T03:38:39.109Z,0.00
2022-11-17T03:39:39.129Z,0.00
2022-11-17T03:40:39.087Z,0.00
2022-11-17T03:41:39.088Z,0.00
2022-11-17T03:42:39.111Z,0.00
2022-11-17T03:43:39.058Z,0.00
2022-11-17T03:44:39.045Z,0.00
2022-11-17T03:45:39.033Z,0.00
2022-11-17T03:46:39.026Z,0.00
2022-11-17T03:47:39.031Z,0.00
2022-11-17T03:48:39.024Z,0.00
2022-11-17T03:49:38.992Z,0.00
2022-11-17T03:50:38.983Z,0.00
2022-11-17T03:51:38.970Z,0.00
2022-11-17T03:52:38.964Z,0.00
2022-11-17T03:53:39.165Z,0.00
2022-11-17T03:54:38.961Z,0.00
2022-11-17T03:55:38.927Z,0.00
2022-11-17T03:56:38.920Z,0.00
2022-11-17T03:57:38.909Z,0.00
2022-11-17T03:58:38.903Z,0.00
2022-11-17T03:59:38.905Z,0.00
2022-11-17T04:00:38.879Z,0.00
2022-11-17T04:01:38.914Z,0.00
2022-11-17T04:02:38.865Z,0.00
2022-11-17T04:03:39.019Z,0.00
2022-11-17T04:04:38.855Z,0.00
2022-11-17T04:05:38.820Z,0.00
2022-11-17T04:06:38.830Z,0.00
2022-11-17T04:07:38.870Z,0.00
2022-11-17T04:08:38.789Z,0.00
2022-11-17T04:09:38.806Z,0.00
2022-11-17T04:10:38.772Z,0.00
2022-11-17T04:11:38.757Z,0.00
2022-11-17T04:12:38.751Z,0.00
2022-11-17T04:13:38.758Z,0.00
2022-11-17T04:14:38.730Z,0.00
2022-11-17T04:15:38.714Z,0.00
2022-11-17T04:16:38.760Z,0.00
2022-11-17T04:17:38.703Z,0.00
2022-11-17T04:18:38.738Z,0.00
2022-11-17T04:19:38.673Z,0.00
2022-11-17T04:20:38.668Z,0.00
2022-11-17T04:21:38.687Z,0.00
2022-11-17T04:22:38.644Z,0.00
2022-11-17T04:23:38.752Z,0.00
2022-11-17T04:24:38.623Z,0.00
2022-11-17T04:25:38.607Z,0.00
2022-11-17T04:26:38.602Z,0.00
2022-11-17T04:27:38.611Z,0.00
2022-11-17T04:28:38.602Z,0.00
2022-11-17T04:29:38.684Z,0.00
2022-11-17T04:30:38.559Z,0.00
2022-11-17T04:31:38.554Z,0.00
2022-11-17T04:32:38.568Z,0.00
2022-11-17T04:33:38.772Z,0.00
2022-11-17T04:34:38.533Z,0.00
2022-11-17T04:35:38.502Z,0.00
2022-11-17T04:36:38.523Z,0.00
2022-11-17T04:37:38.486Z,0.00
2022-11-17T04:38:38.537Z,0.00
2022-11-17T04:39:38.463Z,0.00
2022-11-17T04:40:38.463Z,0.00
2022-11-17T04:41:38.466Z,0.00
2022-11-17T04:42:38.434Z,0.00
2022-11-17T04:43:38.455Z,0.00
2022-11-17T04:44:38.411Z,0.00
2022-11-17T04:45:38.401Z,0.00
2022-11-17T04:46:38.433Z,0.00
2022-11-17T04:47:38.375Z,0.00
2022-11-17T04:48:38.374Z,0.00
2022-11-17T04:49:38.376Z,0.00
2022-11-17T04:50:38.349Z,0.00
2022-11-17T04:51:38.339Z,0.00
2022-11-17T04:52:38.331Z,0.00
2022-11-17T04:53:38.424Z,0.00
2022-11-17T04:54:38.335Z,0.00
2022-11-17T04:55:38.293Z,0.00
2022-11-17T04:56:38.288Z,0.00
2022-11-17T04:57:38.275Z,0.00
2022-11-17T04:58:38.267Z,0.00
2022-11-17T04:59:38.278Z,0.00
2022-11-17T05:00:38.243Z,0.00
2022-11-17T05:01:38.234Z,0.00
2022-11-17T05:02:38.267Z,0.00
2022-11-17T05:03:38.287Z,0.00
2022-11-17T05:04:38.209Z,0.00
2022-11-17T05:05:38.209Z,0.00
2022-11-17T05:06:38.186Z,0.00
2022-11-17T05:07:38.268Z,0.00
2022-11-17T05:08:38.190Z,0.00
2022-11-17T05:09:38.167Z,0.00
2022-11-17T05:10:38.239Z,0.00
2022-11-17T05:11:38.127Z,0.00
2022-11-17T05:12:38.122Z,0.00
2022-11-17T05:13:38.364Z,0.00
2022-11-17T05:14:38.095Z,0.00
2022-11-17T05:15:38.086Z,0.00
2022-11-17T05:16:38.107Z,0.00
2022-11-17T05:17:38.075Z,0.00
2022-11-17T05:18:38.056Z,0.00
2022-11-17T05:19:38.046Z,0.00
2022-11-17T05:20:38.062Z,0.00
2022-11-17T05:21:38.023Z,0.00
2022-11-17T05:22:38.038Z,0.00
2022-11-17T05:23:38.213Z,0.00
2022-11-17T05:24:37.992Z,0.00
2022-11-17T05:25:37.983Z,0.00
2022-11-17T05:26:37.972Z,0.00
2022-11-17T05:27:37.966Z,0.00
2022-11-17T05:28:37.973Z,0.00
2022-11-17T05:29:37.937Z,0.00
2022-11-17T05:30:38.111Z,0.00
2022-11-17T05:31:37.920Z,0.00
2022-11-17T05:32:37.908Z,0.00
2022-11-17T05:33:38.186Z,0.00
2022-11-17T05:34:37.889Z,0.00
2022-11-17T05:35:37.873Z,0.00
2022-11-17T05:36:37.867Z,0.00
2022-11-17T05:37:37.881Z,0.00
2022-11-17T05:38:37.872Z,0.00
2022-11-17T05:39:37.833Z,0.00
2022-11-17T05:40:37.826Z,0.00
2022-11-17T05:41:37.815Z,0.00
2022-11-17T05:42:37.801Z,0.00
2022-11-17T05:43:37.987Z,0.00
2022-11-17T05:44:37.825Z,0.00
2022-11-17T05:45:37.880Z,0.00
2022-11-17T05:46:37.760Z,0.00
2022-11-17T05:47:37.752Z,0.00
2022-11-17T05:48:37.739Z,0.00
2022-11-17T05:49:37.727Z,0.00
2022-11-17T05:50:37.745Z,0.00
2022-11-17T05:51:37.705Z,0.00
2022-11-17T05:52:37.696Z,0.00
2022-11-17T05:53:37.883Z,0.00
2022-11-17T05:54:37.699Z,0.00
2022-11-17T05:55:37.689Z,0.00
2022-11-17T05:56:37.654Z,0.00
2022-11-17T05:57:37.643Z,0.00
2022-11-17T05:58:37.638Z,0.00
2022-11-17T05:59:37.620Z,0.00
2022-11-17T06:00:37.640Z,0.00
2022-11-17T06:01:37.608Z,0.00
2022-11-17T06:02:37.594Z,0.00
2022-11-17T06:03:37.968Z,0.00
2022-11-17T06:04:37.606Z,0.00
2022-11-17T06:05:37.583Z,0.00
2022-11-17T06:06:37.508Z,0.00
2022-11-17T06:07:37.660Z,0.00
2022-11-17T06:08:37.493Z,0.00
2022-11-17T06:09:37.526Z,0.00
2022-11-17T06:10:37.531Z,0.00
2022-11-17T06:11:37.538Z,0.00
2022-11-17T06:12:37.493Z,0.00
2022-11-17T06:13:37.852Z,0.00
2022-11-17T06:14:37.413Z,0.00
2022-11-17T06:15:37.419Z,0.00
2022-11-17T06:16:37.408Z,0.00
2022-11-17T06:17:37.406Z,0.00
2022-11-17T06:18:37.377Z,0.00
2022-11-17T06:19:37.380Z,0.00
2022-11-17T06:20:37.357Z,0.00
2022-11-17T06:22:04.557Z,0.00
2022-11-17T06:22:37.334Z,0.00
2022-11-17T06:23:37.720Z,0.00
2022-11-17T06:24:37.363Z,0.00
2022-11-17T06:25:37.307Z,0.00
2022-11-17T06:26:37.286Z,0.00
2022-11-17T06:27:43.757Z,0.00
2022-11-17T06:28:37.299Z,0.00
2022-11-17T06:29:42.649Z,0.00
2022-11-17T06:30:37.259Z,0.00
2022-11-17T06:31:37.232Z,0.00
2022-11-17T06:32:37.223Z,0.00
2022-11-17T06:33:37.695Z,0.00
2022-11-17T06:34:37.241Z,0.00
2022-11-17T06:35:37.191Z,0.00
2022-11-17T06:36:37.185Z,0.00
2022-11-17T06:37:37.169Z,0.00
2022-11-17T06:38:37.161Z,0.00
2022-11-17T06:39:37.155Z,0.00
2022-11-17T06:40:37.196Z,0.00
2022-11-17T06:41:37.125Z,0.00
2022-11-17T06:42:37.120Z,0.00
2022-11-17T06:43:37.402Z,0.00
2022-11-17T06:44:37.113Z,0.00
2022-11-17T06:45:37.085Z,0.00
2022-11-17T06:46:37.105Z,0.00
2022-11-17T06:47:37.063Z,0.00
2022-11-17T06:48:37.586Z,0.00
2022-11-17T06:49:37.048Z,0.00
2022-11-17T06:50:37.071Z,0.00
2022-11-17T06:51:40.942Z,0.00
2022-11-17T06:52:37.036Z,0.00
2022-11-17T06:53:37.294Z,0.00
2022-11-17T06:54:37.049Z,0.00
2022-11-17T06:55:37.014Z,0.00
2022-11-17T06:56:37.060Z,0.00
2022-11-17T06:57:36.987Z,0.00
2022-11-17T06:58:37.251Z,0.00
2022-11-17T06:59:36.988Z,0.00
2022-11-17T07:00:37.081Z,0.00
2022-11-17T07:01:36.942Z,0.00
2022-11-17T07:02:36.952Z,0.00
2022-11-17T07:03:37.273Z,0.00
2022-11-17T07:04:36.924Z,0.00
2022-11-17T07:05:37.122Z,0.00
2022-11-17T07:06:36.888Z,0.00
2022-11-17T07:07:36.986Z,0.00
2022-11-17T07:08:37.340Z,0.00
2022-11-17T07:09:36.895Z,0.00
2022-11-17T07:10:36.850Z,0.00
2022-11-17T07:11:36.853Z,0.00
2022-11-17T07:12:36.830Z,0.00
2022-11-17T07:13:36.834Z,0.00
2022-11-17T07:14:36.836Z,0.00
2022-11-17T07:15:36.848Z,0.00
2022-11-17T07:16:36.795Z,0.00
2022-11-17T07:17:36.792Z,0.00
2022-11-17T07:18:37.098Z,0.00
2022-11-17T07:19:36.792Z,0.00
2022-11-17T07:20:36.748Z,0.00
2022-11-17T07:21:36.783Z,0.00
2022-11-17T07:22:36.721Z,5.62
2022-11-17T07:23:36.854Z,5.62
2022-11-17T07:24:36.701Z,5.62
2022-11-17T07:25:36.707Z,5.62
2022-11-17T07:26:36.718Z,5.62
2022-11-17T07:27:36.685Z,5.62
2022-11-17T07:28:37.126Z,5.62
2022-11-17T07:29:36.700Z,0.00
2022-11-17T07:30:36.645Z,0.00
2022-11-17T07:31:36.676Z,0.00
2022-11-17T07:32:36.619Z,0.00
2022-11-17T07:33:36.665Z,0.00
2022-11-17T07:34:36.597Z,0.00
2022-11-17T07:35:36.586Z,0.00
2022-11-17T07:36:36.580Z,0.00
2022-11-17T07:37:36.608Z,0.00
2022-11-17T07:38:36.865Z,0.00
2022-11-17T07:39:36.558Z,0.00
2022-11-17T07:40:36.532Z,0.00
2022-11-17T07:41:36.593Z,0.00
2022-11-17T07:42:36.533Z,0.00
2022-11-17T07:43:36.532Z,0.00
2022-11-17T07:44:36.489Z,0.00
2022-11-17T07:45:36.495Z,5.62
2022-11-17T07:46:36.470Z,0.00
2022-11-17T07:47:36.519Z,0.00
2022-11-17T07:48:36.935Z,0.00
2022-11-17T07:49:36.469Z,5.62
2022-11-17T07:50:36.425Z,5.62
2022-11-17T07:51:36.451Z,5.62
2022-11-17T07:52:41.265Z,5.62
2022-11-17T07:53:36.457Z,5.62
2022-11-17T07:54:36.414Z,5.62
2022-11-17T07:55:36.392Z,5.62
2022-11-17T07:56:36.380Z,5.62
2022-11-17T07:57:36.369Z,5.62
2022-11-17T07:58:36.713Z,11.25
2022-11-17T07:59:36.364Z,11.25
2022-11-17T08:00:36.395Z,11.25
2022-11-17T08:01:36.329Z,11.25
2022-11-17T08:02:36.304Z,5.62
2022-11-17T08:03:36.406Z,5.62
2022-11-17T08:04:36.283Z,5.62
2022-11-17T08:05:41.576Z,5.62
2022-11-17T08:06:36.301Z,5.62
2022-11-17T08:07:36.325Z,5.62
2022-11-17T08:08:36.542Z,11.25
2022-11-17T08:09:36.266Z,11.25
2022-11-17T08:10:36.221Z,11.25
2022-11-17T08:11:36.243Z,11.25
2022-11-17T08:12:36.196Z,11.25
2022-11-17T08:13:36.222Z,11.25
2022-11-17T08:14:36.176Z,16.88
2022-11-17T08:15:36.248Z,16.88
2022-11-17T08:16:36.157Z,16.88
2022-11-17T08:17:36.174Z,16.88
2022-11-17T08:18:36.888Z,16.88
2022-11-17T08:19:36.168Z,16.88
2022-11-17T08:20:36.150Z,16.88
2022-11-17T08:21:36.119Z,16.88
2022-11-17T08:22:36.092Z,16.88
2022-11-17T08:23:36.098Z,16.88
2022-11-17T08:24:36.071Z,11.25
2022-11-17T08:25:36.091Z,11.25
2022-11-17T08:26:36.075Z,11.25
2022-11-17T08:27:36.070Z,11.25
2022-11-17T08:28:36.414Z,11.25
2022-11-17T08:29:36.033Z,5.62
2022-11-17T08:30:36.004Z,5.62
2022-11-17T08:31:36.041Z,5.62
2022-11-17T08:32:34.979Z,5.62
2022-11-17T08:33:36.018Z,5.62
2022-11-17T08:34:35.967Z,0.00
2022-11-17T08:35:37.754Z,0.00
2022-11-17T08:36:35.985Z,0.00
2022-11-17T08:37:35.971Z,5.62
2022-11-17T08:38:36.187Z,5.62
2022-11-17T08:39:35.937Z,5.62
2022-11-17T08:40:35.906Z,11.25
2022-11-17T08:41:35.910Z,16.88
2022-11-17T08:42:35.906Z,22.50
2022-11-17T08:43:35.891Z,22.50
2022-11-17T08:44:35.862Z,28.12
2022-11-17T08:45:35.875Z,22.50
2022-11-17T08:46:36.092Z,22.50
2022-11-17T08:47:35.889Z,22.50
2022-11-17T08:48:36.201Z,22.50
2022-11-17T08:49:35.848Z,22.50
2022-11-17T08:50:35.822Z,22.50
2022-11-17T08:51:35.814Z,22.50
2022-11-17T08:52:35.790Z,22.50
2022-11-17T08:53:35.824Z,22.50
2022-11-17T08:54:35.757Z,22.50
2022-11-17T08:55:40.769Z,16.88
2022-11-17T08:56:35.767Z,16.88
2022-11-17T08:57:35.768Z,11.25
2022-11-17T08:58:36.076Z,11.25
2022-11-17T08:59:35.714Z,11.25
2022-11-17T09:00:35.766Z,16.88
2022-11-17T09:01:35.707Z,16.88
2022-11-17T09:02:35.719Z,16.88
2022-11-17T09:03:35.670Z,16.88
2022-11-17T09:04:35.679Z,11.25
2022-11-17T09:05:35.634Z,16.88
2022-11-17T09:06:35.682Z,16.88
2022-11-17T09:07:35.788Z,22.50
2022-11-17T09:08:45.644Z,22.50
2022-11-17T09:09:35.724Z,22.50
2022-11-17T09:10:35.573Z,22.50
2022-11-17T09:11:35.592Z,16.88
2022-11-17T09:12:35.547Z,16.88
2022-11-17T09:13:35.561Z,16.88
2022-11-17T09:14:35.524Z,16.88
2022-11-17T09:15:35.568Z,16.88
2022-11-17T09:16:35.522Z,22.50
2022-11-17T09:17:35.535Z,22.50
2022-11-17T09:18:35.782Z,22.50
2022-11-17T09:19:35.543Z,22.50
2022-11-17T09:20:35.463Z,16.88
2022-11-17T09:21:35.487Z,16.88
2022-11-17T09:22:35.440Z,16.88
2022-11-17T09:23:35.894Z,22.50
2022-11-17T09:24:35.433Z,22.50
2022-11-17T09:25:35.439Z,22.50
2022-11-17T09:26:35.403Z,22.50
2022-11-17T09:27:35.432Z,22.50
2022-11-17T09:28:35.827Z,22.50
2022-11-17T09:29:35.406Z,16.88
2022-11-17T09:30:35.360Z,16.88
2022-11-17T09:31:35.492Z,16.88
2022-11-17T09:32:35.360Z,16.88
2022-11-17T09:33:35.358Z,16.88
2022-11-17T09:34:35.464Z,16.88
2022-11-17T09:35:35.335Z,22.50
2022-11-17T09:36:35.294Z,28.12
2022-11-17T09:37:35.336Z,28.12
2022-11-17T09:38:35.710Z,28.12
2022-11-17T09:39:35.291Z,22.50
2022-11-17T09:40:37.967Z,22.50
2022-11-17T09:41:35.277Z,22.50
2022-11-17T09:42:35.262Z,22.50
2022-11-17T09:43:35.242Z,22.50
2022-11-17T09:44:35.217Z,28.12
2022-11-17T09:45:35.219Z,28.12
2022-11-17T09:46:35.189Z,28.12
2022-11-17T09:47:35.194Z,28.12
2022-11-17T09:48:41.197Z,28.12
2022-11-17T09:49:35.195Z,22.50
2022-11-17T09:50:35.149Z,22.50
2022-11-17T09:51:35.178Z,16.88
2022-11-17T09:52:35.128Z,16.88
2022-11-17T09:53:35.481Z,16.88
2022-11-17T09:54:35.112Z,16.88
2022-11-17T09:55:35.148Z,22.50
2022-11-17T09:56:35.078Z,22.50
2022-11-17T09:57:35.105Z,22.50
2022-11-17T09:58:35.315Z,22.50
2022-11-17T09:59:35.068Z,22.50
2022-11-17T10:00:35.040Z,22.50
2022-11-17T10:01:35.050Z,22.50
2022-11-17T10:02:35.081Z,22.50
2022-11-17T10:03:40.057Z,22.50
2022-11-17T10:04:35.009Z,16.88
2022-11-17T10:05:35.020Z,16.88
2022-11-17T10:06:34.980Z,16.88
2022-11-17T10:07:35.050Z,16.88
2022-11-17T10:08:34.984Z,22.50
2022-11-17T10:09:34.958Z,22.50
2022-11-17T10:10:34.973Z,22.50
2022-11-17T10:11:34.975Z,22.50
2022-11-17T10:12:34.915Z,22.50
2022-11-17T10:13:35.246Z,28.12
2022-11-17T10:14:34.893Z,28.12
2022-11-17T10:15:34.899Z,33.75
2022-11-17T10:16:34.901Z,39.38
2022-11-17T10:17:34.882Z,39.38
2022-11-17T10:18:37.849Z,39.38
2022-11-17T10:19:34.841Z,39.38
2022-11-17T10:20:34.901Z,45.00
2022-11-17T10:21:34.846Z,45.00
2022-11-17T10:22:34.813Z,50.62
2022-11-17T10:23:35.150Z,73.12
2022-11-17T10:24:34.829Z,67.50
2022-11-17T10:25:34.791Z,67.50
2022-11-17T10:26:34.789Z,56.25
2022-11-17T10:27:34.771Z,45.00
2022-11-17T10:28:34.748Z,45.00
2022-11-17T10:29:34.749Z,50.62
2022-11-17T10:30:34.764Z,45.00
2022-11-17T10:31:34.773Z,39.38
2022-11-17T10:32:34.702Z,39.38
2022-11-17T10:33:35.090Z,39.38
2022-11-17T10:34:40.647Z,39.38
2022-11-17T10:35:34.718Z,39.38
2022-11-17T10:36:34.659Z,39.38
2022-11-17T10:37:34.665Z,39.38
2022-11-17T10:38:34.637Z,39.38
2022-11-17T10:39:34.628Z,39.38
2022-11-17T10:40:34.617Z,39.38
2022-11-17T10:41:34.642Z,28.12
2022-11-17T10:42:34.594Z,22.50
2022-11-17T10:43:35.065Z,16.88
2022-11-17T10:44:34.576Z,16.88
2022-11-17T10:45:34.595Z,11.25
2022-11-17T10:46:44.952Z,5.62
2022-11-17T10:47:34.576Z,5.62
2022-11-17T10:48:34.560Z,5.62
2022-11-17T10:49:34.540Z,5.62
2022-11-17T10:50:34.512Z,5.62
2022-11-17T10:51:34.532Z,5.62
2022-11-17T10:52:34.488Z,5.62
2022-11-17T10:53:39.459Z,11.25
2022-11-17T10:54:34.496Z,11.25
2022-11-17T10:55:34.469Z,11.25
2022-11-17T10:56:34.447Z,11.25
2022-11-17T10:57:34.452Z,11.25
2022-11-17T10:58:34.424Z,11.25
2022-11-17T10:59:34.465Z,11.25
2022-11-17T11:00:34.412Z,11.25
2022-11-17T11:01:34.474Z,22.50
2022-11-17T11:02:34.406Z,33.75
2022-11-17T11:03:34.799Z,39.38
2022-11-17T11:04:34.360Z,45.00
2022-11-17T11:05:34.370Z,45.00
2022-11-17T11:06:34.341Z,50.62
2022-11-17T11:07:34.362Z,50.62
2022-11-17T11:08:34.343Z,56.25
2022-11-17T11:09:34.326Z,61.88
2022-11-17T11:10:34.329Z,106.88
2022-11-17T11:11:36.452Z,106.88
2022-11-17T11:12:34.280Z,140.62
2022-11-17T11:13:34.317Z,101.25
2022-11-17T11:14:34.257Z,101.25
2022-11-17T11:15:34.267Z,202.50
2022-11-17T11:16:34.236Z,95.62
2022-11-17T11:17:34.255Z,78.75
2022-11-17T11:18:35.239Z,61.88
2022-11-17T11:19:34.218Z,56.25
2022-11-17T11:20:34.224Z,45.00
2022-11-17T11:21:34.220Z,39.38
2022-11-17T11:22:34.191Z,39.38
2022-11-17T11:23:34.164Z,33.75
2022-11-17T11:24:34.182Z,28.12
2022-11-17T11:25:34.144Z,33.75
2022-11-17T11:26:34.181Z,39.38
2022-11-17T11:27:34.124Z,39.38
2022-11-17T11:28:34.148Z,39.38
2022-11-17T11:29:34.105Z,39.38
2022-11-17T11:30:34.114Z,39.38
2022-11-17T11:31:34.118Z,39.38
2022-11-17T11:32:34.097Z,33.75
2022-11-17T11:33:34.079Z,28.12
2022-11-17T11:34:34.054Z,28.12
2022-11-17T11:35:34.038Z,39.38
2022-11-17T11:36:34.051Z,39.38
2022-11-17T11:37:34.073Z,45.00
2022-11-17T11:38:34.040Z,61.88
2022-11-17T11:39:33.988Z,61.88
2022-11-17T11:40:33.993Z,61.88
2022-11-17T11:41:33.994Z,73.12
2022-11-17T11:42:33.987Z,67.50
2022-11-17T11:43:33.978Z,106.88
2022-11-17T11:44:33.955Z,95.62
2022-11-17T11:45:33.972Z,78.75
2022-11-17T11:46:33.946Z,73.12
2022-11-17T11:47:33.907Z,67.50
2022-11-17T11:48:34.817Z,73.12
2022-11-17T11:49:33.895Z,73.12
2022-11-17T11:50:38.986Z,73.12
2022-11-17T11:51:33.993Z,61.88
2022-11-17T11:52:33.891Z,56.25
2022-11-17T11:53:33.843Z,50.62
2022-11-17T11:54:33.876Z,39.38
2022-11-17T11:55:33.875Z,45.00
2022-11-17T11:56:33.823Z,39.38
2022-11-17T11:57:33.797Z,56.25
2022-11-17T11:58:33.820Z,56.25
2022-11-17T11:59:33.815Z,236.25
2022-11-17T12:00:33.780Z,225.00
2022-11-17T12:01:33.756Z,225.00
2022-11-17T12:02:33.808Z,208.12
2022-11-17T12:03:33.801Z,146.25
2022-11-17T12:04:33.753Z,230.62
2022-11-17T12:05:33.740Z,225.00
2022-11-17T12:06:33.734Z,225.00
2022-11-17T12:07:33.715Z,225.00
2022-11-17T12:08:33.701Z,230.62
2022-11-17T12:09:33.675Z,236.25
2022-11-17T12:10:33.721Z,247.50
2022-11-17T12:11:33.653Z,135.00
2022-11-17T12:12:33.674Z,236.25
2022-11-17T12:13:33.635Z,151.88
2022-11-17T12:14:33.647Z,213.75
2022-11-17T12:15:33.630Z,73.12
2022-11-17T12:16:33.683Z,61.88
2022-11-17T12:17:33.609Z,45.00
2022-11-17T12:18:33.613Z,39.38
2022-11-17T12:19:33.567Z,39.38
2022-11-17T12:20:33.583Z,45.00
2022-11-17T12:21:33.543Z,61.88
2022-11-17T12:22:33.563Z,56.25
2022-11-17T12:23:33.545Z,84.38
2022-11-17T12:24:33.527Z,67.50
2022-11-17T12:25:33.505Z,67.50
2022-11-17T12:26:33.523Z,73.12
2022-11-17T12:27:33.484Z,73.12
2022-11-17T12:28:40.166Z,73.12
2022-11-17T12:29:33.463Z,73.12
2022-11-17T12:30:33.464Z,67.50
2022-11-17T12:31:33.438Z,67.50
2022-11-17T12:32:33.459Z,61.88
2022-11-17T12:33:33.438Z,50.62
2022-11-17T12:34:33.426Z,39.38
2022-11-17T12:35:33.403Z,39.38
2022-11-17T12:36:33.405Z,39.38
2022-11-17T12:37:33.382Z,39.38
2022-11-17T12:38:33.443Z,39.38
2022-11-17T12:39:33.361Z,45.00
2022-11-17T12:40:33.368Z,56.25
2022-11-17T12:41:33.337Z,67.50
2022-11-17T12:42:33.361Z,73.12
2022-11-17T12:43:33.317Z,73.12
2022-11-17T12:44:33.367Z,67.50
2022-11-17T12:45:37.546Z,67.50
2022-11-17T12:46:33.328Z,61.88
2022-11-17T12:47:33.279Z,61.88
2022-11-17T12:48:34.756Z,95.62
2022-11-17T12:49:33.256Z,56.25
2022-11-17T12:50:33.280Z,73.12
2022-11-17T12:51:33.232Z,39.38
2022-11-17T12:52:33.247Z,33.75
2022-11-17T12:53:33.213Z,28.12
2022-11-17T12:54:33.222Z,22.50
2022-11-17T12:55:33.205Z,16.88
2022-11-17T12:56:33.208Z,11.25
2022-11-17T12:57:33.168Z,11.25
2022-11-17T12:58:33.194Z,5.62
2022-11-17T12:59:33.147Z,5.62
2022-11-17T13:00:33.201Z,5.62
2022-11-17T13:01:33.146Z,5.62
2022-11-17T13:02:33.143Z,0.00
2022-11-17T13:03:33.106Z,0.00
2022-11-17T13:04:33.114Z,0.00
2022-11-17T13:05:33.086Z,0.00
2022-11-17T13:06:35.850Z,0.00
2022-11-17T13:07:33.084Z,0.00
2022-11-17T13:08:33.088Z,0.00
2022-11-17T13:09:33.038Z,0.00